createdAt,value
2017-12-22T07:21:13.257Z,101646
2017-12-22T07:22:18.733Z,101636
2017-12-22T07:23:24.225Z,101639
2017-12-22T07:24:30.179Z,101636
2017-12-22T07:25:35.671Z,101642
2017-12-22T07:26:41.165Z,101647
2017-12-22T07:27:46.995Z,101636
2017-12-22T07:28:52.220Z,101653
2017-12-22T07:29:57.425Z,101650
2017-12-22T07:31:03.036Z,101648
2017-12-22T07:32:08.561Z,101656
2017-12-22T07:33:14.088Z,101657
2017-12-22T07:34:19.571Z,101663
2017-12-22T07:35:25.050Z,101662
2017-12-22T07:36:30.881Z,101665
2017-12-22T07:37:36.316Z,101668
2017-12-22T07:38:41.830Z,101668
2017-12-22T07:39:47.726Z,101662
2017-12-22T07:40:52.916Z,101653
2017-12-22T07:41:58.411Z,101668
2017-12-22T07:43:03.853Z,101654
2017-12-22T07:44:09.089Z,101657
2017-12-22T07:45:14.594Z,101654
2017-12-22T07:46:20.352Z,101648
2017-12-22T07:47:25.567Z,101654
2017-12-22T07:48:31.488Z,101652
2017-12-22T07:49:37.006Z,101646
2017-12-22T07:50:42.494Z,101640
2017-12-22T07:51:47.970Z,101649
2017-12-22T07:52:53.430Z,101641
2017-12-22T07:53:58.906Z,101641
2017-12-22T07:55:04.411Z,101661
2017-12-22T07:56:09.565Z,101647
2017-12-22T07:57:14.771Z,101650
2017-12-22T07:58:20.496Z,101659
2017-12-22T07:59:25.697Z,101650
2017-12-22T08:00:31.408Z,101668
2017-12-22T08:01:36.358Z,101668
2017-12-22T08:02:41.852Z,101671
2017-12-22T08:03:47.607Z,101662
2017-12-22T08:04:53.102Z,101677
2017-12-22T08:05:58.581Z,101682
2017-12-22T08:07:03.469Z,101665
2017-12-22T08:08:08.950Z,101677
2017-12-22T08:09:14.175Z,101665
2017-12-22T08:10:19.633Z,101674
2017-12-22T08:11:24.854Z,101682
2017-12-22T08:12:30.333Z,101691
2017-12-22T08:13:35.260Z,101682
2017-12-22T08:14:40.769Z,101688
2017-12-22T08:15:46.208Z,101688
2017-12-22T08:16:51.665Z,101703
2017-12-22T08:17:56.868Z,101700
2017-12-22T08:19:02.683Z,101700
2017-12-22T08:20:08.142Z,101694
2017-12-22T08:21:13.308Z,101695
2017-12-22T08:22:19.060Z,101692
2017-12-22T08:23:24.739Z,101703
2017-12-22T08:24:30.632Z,101700
2017-12-22T08:25:36.106Z,101701
2017-12-22T08:26:41.547Z,101701
2017-12-22T08:27:47.297Z,101692
2017-12-22T08:28:52.788Z,101704
2017-12-22T08:29:58.280Z,101692
2017-12-22T08:31:04.001Z,101692
2017-12-22T08:32:09.491Z,101701
2017-12-22T08:33:14.688Z,101704
2017-12-22T08:34:20.536Z,101704
2017-12-22T08:35:25.788Z,101707
2017-12-22T08:36:31.521Z,101703
2017-12-22T08:37:36.710Z,101715
2017-12-22T08:38:41.922Z,101712
2017-12-22T08:39:47.174Z,101713
2017-12-22T08:40:52.659Z,101710
2017-12-22T08:41:58.003Z,101716
2017-12-22T08:43:03.754Z,101713
2017-12-22T08:44:08.947Z,101713
2017-12-22T08:45:14.427Z,101718
2017-12-22T08:46:20.220Z,101719
2017-12-22T08:47:25.699Z,101713
2017-12-22T08:48:31.227Z,101719
2017-12-22T08:49:35.913Z,101704
2017-12-22T08:50:41.413Z,101719
2017-12-22T08:51:47.381Z,101716
2017-12-22T08:52:52.854Z,101719
2017-12-22T08:53:58.377Z,101719
2017-12-22T08:55:04.016Z,101719
2017-12-22T08:56:09.234Z,101722
2017-12-22T08:57:14.443Z,101722
2017-12-22T08:58:20.170Z,101722
2017-12-22T08:59:25.368Z,101727
2017-12-22T09:00:31.296Z,101733
2017-12-22T09:01:36.798Z,101736
2017-12-22T09:02:42.281Z,101739
2017-12-22T09:03:48.017Z,101730
2017-12-22T09:04:53.479Z,101733
2017-12-22T09:05:58.689Z,101739
2017-12-22T09:07:04.145Z,101739
2017-12-22T09:08:09.649Z,101740
2017-12-22T09:09:15.141Z,101746
2017-12-22T09:10:21.011Z,101751
2017-12-22T09:11:26.185Z,101749
2017-12-22T09:12:31.720Z,101737
2017-12-22T09:13:36.923Z,101740
2017-12-22T09:14:42.120Z,101731
2017-12-22T09:15:47.582Z,101737
2017-12-22T09:16:52.506Z,101749
2017-12-22T09:17:57.735Z,101750
2017-12-22T09:19:03.281Z,101752
2017-12-22T09:20:08.927Z,101749
2017-12-22T09:21:14.441Z,101763
2017-12-22T09:22:19.814Z,101760
2017-12-22T09:23:25.289Z,101766
2017-12-22T09:24:30.746Z,101763
2017-12-22T09:25:36.026Z,101752
2017-12-22T09:26:41.289Z,101754
2017-12-22T09:27:47.069Z,101757
2017-12-22T09:28:52.285Z,101760
2017-12-22T09:29:57.774Z,101757
2017-12-22T09:31:03.462Z,101769
2017-12-22T09:32:08.971Z,101766
2017-12-22T09:33:14.466Z,101755
2017-12-22T09:34:19.647Z,101761
2017-12-22T09:35:24.860Z,101758
2017-12-22T09:36:30.382Z,101758
2017-12-22T09:37:35.589Z,101749
2017-12-22T09:38:41.057Z,101752
2017-12-22T09:39:46.242Z,101746
2017-12-22T09:40:51.736Z,101755
2017-12-22T09:41:57.220Z,101743
2017-12-22T09:43:02.696Z,101757
2017-12-22T09:44:07.892Z,101751
2017-12-22T09:45:13.383Z,101743
2017-12-22T09:46:18.868Z,101754
2017-12-22T09:47:24.418Z,101746
2017-12-22T09:48:29.987Z,101760
2017-12-22T09:49:34.916Z,101760
2017-12-22T09:50:40.385Z,101758
2017-12-22T09:51:45.020Z,101757
2017-12-22T09:52:50.228Z,101760
2017-12-22T09:53:55.736Z,101766
2017-12-22T09:55:00.948Z,101769
2017-12-22T09:56:05.279Z,101768
2017-12-22T09:57:10.465Z,101771
2017-12-22T09:58:15.775Z,101771
2017-12-22T09:59:21.270Z,101762
2017-12-22T10:00:26.984Z,101765
2017-12-22T10:01:32.203Z,101771
2017-12-22T10:02:37.727Z,101770
2017-12-22T10:03:43.239Z,101782
2017-12-22T10:04:48.642Z,101768
2017-12-22T10:05:54.521Z,101768
2017-12-22T10:06:59.782Z,101768
2017-12-22T10:08:05.361Z,101768
2017-12-22T10:09:11.255Z,101762
2017-12-22T10:10:16.954Z,101765
2017-12-22T10:11:22.439Z,101773
2017-12-22T10:12:28.082Z,101767
2017-12-22T10:13:33.265Z,101762
2017-12-22T10:14:38.947Z,101759
2017-12-22T10:15:44.144Z,101762
2017-12-22T10:16:49.606Z,101765
2017-12-22T10:17:55.092Z,101750
2017-12-22T10:19:00.592Z,101765
2017-12-22T10:20:05.517Z,101762
2017-12-22T10:21:11.002Z,101753
2017-12-22T10:22:16.456Z,101758
2017-12-22T10:23:21.669Z,101744
2017-12-22T10:24:27.672Z,101747
2017-12-22T10:25:33.150Z,101747
2017-12-22T10:26:38.632Z,101738
2017-12-22T10:27:44.173Z,101743
2017-12-22T10:28:49.412Z,101738
2017-12-22T10:29:54.907Z,101735
2017-12-22T10:31:00.420Z,101738
2017-12-22T10:32:05.897Z,101735
2017-12-22T10:33:11.294Z,101733
2017-12-22T10:34:16.443Z,101744
2017-12-22T10:35:21.938Z,101747
2017-12-22T10:36:27.638Z,101750
2017-12-22T10:37:33.275Z,101759
2017-12-22T10:38:38.467Z,101762
2017-12-22T10:39:44.192Z,101750
2017-12-22T10:40:50.259Z,101745
2017-12-22T10:41:55.177Z,101747
2017-12-22T10:43:00.861Z,101759
2017-12-22T10:44:06.049Z,101760
2017-12-22T10:45:11.263Z,101763
2017-12-22T10:46:16.989Z,101766
2017-12-22T10:47:22.516Z,101757
2017-12-22T10:48:28.446Z,101760
2017-12-22T10:49:33.647Z,101751
2017-12-22T10:50:38.574Z,101757
2017-12-22T10:51:44.010Z,101760
2017-12-22T10:52:49.515Z,101760
2017-12-22T10:53:54.729Z,101766
2017-12-22T10:55:00.488Z,101769
2017-12-22T10:56:05.974Z,101769
2017-12-22T10:57:11.470Z,101758
2017-12-22T10:58:17.211Z,101761
2017-12-22T10:59:22.697Z,101772
2017-12-22T11:00:28.611Z,101758
2017-12-22T11:01:33.859Z,101757
2017-12-22T11:02:39.054Z,101743
2017-12-22T11:03:44.244Z,101743
2017-12-22T11:04:49.727Z,101743
2017-12-22T11:05:55.210Z,101746
2017-12-22T11:07:00.661Z,101743
2017-12-22T11:08:06.324Z,101743
2017-12-22T11:09:11.521Z,101740
2017-12-22T11:10:17.336Z,101734
2017-12-22T11:11:22.527Z,101734
2017-12-22T11:12:28.402Z,101734
2017-12-22T11:13:33.962Z,101743
2017-12-22T11:14:39.482Z,101737
2017-12-22T11:15:44.680Z,101729
2017-12-22T11:16:50.187Z,101734
2017-12-22T11:17:55.708Z,101740
2017-12-22T11:19:01.508Z,101737
2017-12-22T11:20:06.692Z,101732
2017-12-22T11:21:12.169Z,101737
2017-12-22T11:22:17.417Z,101726
2017-12-22T11:23:23.081Z,101726
2017-12-22T11:24:28.890Z,101737
2017-12-22T11:25:34.581Z,101719
2017-12-22T11:26:40.068Z,101734
2017-12-22T11:27:45.801Z,101731
2017-12-22T11:28:51.291Z,101731
2017-12-22T11:29:56.521Z,101734
2017-12-22T11:31:01.975Z,101734
2017-12-22T11:32:07.187Z,101740
2017-12-22T11:33:12.681Z,101737
2017-12-22T11:34:18.232Z,101748
2017-12-22T11:35:23.737Z,101745
2017-12-22T11:36:29.693Z,101748
2017-12-22T11:37:35.196Z,101762
2017-12-22T11:38:40.166Z,101753
2017-12-22T11:39:45.992Z,101764
2017-12-22T11:40:51.477Z,101760
2017-12-22T11:41:56.935Z,101760
2017-12-22T11:43:02.431Z,101757
2017-12-22T11:44:07.924Z,101748
2017-12-22T11:45:13.389Z,101739
2017-12-22T11:46:19.220Z,101742
2017-12-22T11:47:24.842Z,101739
2017-12-22T11:48:30.733Z,101745
2017-12-22T11:49:35.664Z,101748
2017-12-22T11:50:41.170Z,101736
2017-12-22T11:51:46.912Z,101753
2017-12-22T11:52:52.124Z,101750
2017-12-22T11:53:57.598Z,101750
2017-12-22T11:55:03.168Z,101753
2017-12-22T11:56:08.335Z,101753
2017-12-22T11:57:13.716Z,101753
2017-12-22T11:58:19.159Z,101750
2017-12-22T11:59:24.650Z,101755
2017-12-22T12:00:30.461Z,101749
2017-12-22T12:01:35.956Z,101752
2017-12-22T12:02:41.167Z,101758
2017-12-22T12:03:46.903Z,101749
2017-12-22T12:04:52.441Z,101749
2017-12-22T12:05:57.377Z,101743
2017-12-22T12:07:02.828Z,101749
2017-12-22T12:08:08.337Z,101740
2017-12-22T12:09:13.553Z,101743
2017-12-22T12:10:18.576Z,101737
2017-12-22T12:11:24.094Z,101740
2017-12-22T12:12:29.832Z,101734
2017-12-22T12:13:35.288Z,101749
2017-12-22T12:14:41.099Z,101752
2017-12-22T12:15:46.931Z,101749
2017-12-22T12:16:52.419Z,101746
2017-12-22T12:17:57.897Z,101743
2017-12-22T12:19:03.642Z,101748
2017-12-22T12:20:09.128Z,101748
2017-12-22T12:21:14.608Z,101737
2017-12-22T12:22:20.249Z,101734
2017-12-22T12:23:25.443Z,101731
2017-12-22T12:24:31.168Z,101745
2017-12-22T12:25:36.667Z,101745
2017-12-22T12:26:41.881Z,101742
2017-12-22T12:27:47.740Z,101748
2017-12-22T12:28:52.962Z,101739
2017-12-22T12:29:58.427Z,101745
2017-12-22T12:31:04.266Z,101738
2017-12-22T12:32:09.766Z,101741
2017-12-22T12:33:15.223Z,101738
2017-12-22T12:34:20.968Z,101733
2017-12-22T12:35:25.854Z,101741
2017-12-22T12:36:31.153Z,101747
2017-12-22T12:37:36.689Z,101744
2017-12-22T12:38:42.184Z,101741
2017-12-22T12:39:47.962Z,101735
2017-12-22T12:40:53.423Z,101744
2017-12-22T12:41:58.599Z,101735
2017-12-22T12:43:04.523Z,101738
2017-12-22T12:44:09.428Z,101744
2017-12-22T12:45:14.913Z,101735
2017-12-22T12:46:20.358Z,101741
2017-12-22T12:47:25.536Z,101738
2017-12-22T12:48:31.376Z,101735
2017-12-22T12:49:36.879Z,101737
2017-12-22T12:50:42.079Z,101731
2017-12-22T12:51:48.108Z,101749
2017-12-22T12:52:53.039Z,101731
2017-12-22T12:53:58.529Z,101734
2017-12-22T12:55:04.259Z,101728
2017-12-22T12:56:09.755Z,101728
2017-12-22T12:57:15.236Z,101731
2017-12-22T12:58:21.058Z,101731
2017-12-22T12:59:26.535Z,101731
2017-12-22T13:00:31.911Z,101728
2017-12-22T13:01:37.396Z,101716
2017-12-22T13:02:42.903Z,101710
2017-12-22T13:03:48.447Z,101725
2017-12-22T13:04:54.307Z,101719
2017-12-22T13:05:59.515Z,101708
2017-12-22T13:07:05.695Z,101716
2017-12-22T13:08:10.623Z,101708
2017-12-22T13:09:16.099Z,101711
2017-12-22T13:10:21.567Z,101714
2017-12-22T13:11:27.101Z,101711
2017-12-22T13:12:32.596Z,101717
2017-12-22T13:13:38.246Z,101717
2017-12-22T13:14:43.786Z,101711
2017-12-22T13:15:49.716Z,101714
2017-12-22T13:16:55.218Z,101717
2017-12-22T13:18:00.704Z,101705
2017-12-22T13:19:06.421Z,101711
2017-12-22T13:20:10.786Z,101705
2017-12-22T13:21:16.003Z,101705
2017-12-22T13:22:21.918Z,101708
2017-12-22T13:23:27.399Z,101711
2017-12-22T13:24:33.161Z,101708
2017-12-22T13:25:38.647Z,101716
2017-12-22T13:26:43.544Z,101716
2017-12-22T13:27:49.369Z,101708
2017-12-22T13:28:54.878Z,101705
2017-12-22T13:30:00.061Z,101717
2017-12-22T13:31:05.353Z,101717
2017-12-22T13:32:10.859Z,101725
2017-12-22T13:33:15.975Z,101717
2017-12-22T13:34:21.747Z,101728
2017-12-22T13:35:26.938Z,101719
2017-12-22T13:36:32.679Z,101734
2017-12-22T13:37:38.055Z,101728
2017-12-22T13:38:43.545Z,101725
2017-12-22T13:39:49.322Z,101725
2017-12-22T13:40:54.841Z,101717
2017-12-22T13:42:00.060Z,101722
2017-12-22T13:43:05.894Z,101714
2017-12-22T13:44:11.098Z,101719
2017-12-22T13:45:16.586Z,101722
2017-12-22T13:46:22.032Z,101722
2017-12-22T13:47:27.563Z,101708
2017-12-22T13:48:33.230Z,101716
2017-12-22T13:49:38.635Z,101725
2017-12-22T13:50:44.122Z,101722
2017-12-22T13:51:49.571Z,101708
2017-12-22T13:52:54.778Z,101728
2017-12-22T13:54:00.268Z,101725
2017-12-22T13:55:06.009Z,101731
2017-12-22T13:56:11.520Z,101737
2017-12-22T13:57:16.716Z,101734
2017-12-22T13:58:22.562Z,101725
2017-12-22T13:59:28.053Z,101731
2017-12-22T14:00:33.494Z,101745
2017-12-22T14:01:38.693Z,101725
2017-12-22T14:02:43.613Z,101731
2017-12-22T14:03:49.409Z,101734
2017-12-22T14:04:54.874Z,101722
2017-12-22T14:06:00.564Z,101731
2017-12-22T14:07:06.151Z,101722
2017-12-22T14:08:11.069Z,101716
2017-12-22T14:09:16.419Z,101713
2017-12-22T14:10:21.972Z,101722
2017-12-22T14:11:27.694Z,101713
2017-12-22T14:12:33.570Z,101716
2017-12-22T14:13:39.049Z,101719
2017-12-22T14:14:44.235Z,101722
2017-12-22T14:15:49.959Z,101719
2017-12-22T14:16:55.455Z,101713
2017-12-22T14:18:00.950Z,101722
2017-12-22T14:19:06.864Z,101725
2017-12-22T14:20:12.346Z,101722
2017-12-22T14:21:17.272Z,101716
2017-12-22T14:22:22.721Z,101728
2017-12-22T14:23:28.208Z,101719
2017-12-22T14:24:34.238Z,101728
2017-12-22T14:25:39.727Z,101716
2017-12-22T14:26:45.214Z,101728
2017-12-22T14:27:50.944Z,101716
2017-12-22T14:28:56.588Z,101713
2017-12-22T14:30:02.084Z,101704
2017-12-22T14:31:06.995Z,101713
2017-12-22T14:32:12.496Z,101710
2017-12-22T14:33:17.922Z,101713
2017-12-22T14:34:23.083Z,101716
2017-12-22T14:35:28.557Z,101719
2017-12-22T14:36:34.493Z,101719
2017-12-22T14:37:40.038Z,101713
2017-12-22T14:38:45.517Z,101716
2017-12-22T14:39:50.761Z,101724
2017-12-22T14:40:56.241Z,101719
2017-12-22T14:42:01.722Z,101724
2017-12-22T14:43:06.871Z,101721
2017-12-22T14:44:12.340Z,101724
2017-12-22T14:45:17.810Z,101727
2017-12-22T14:46:23.284Z,101730
2017-12-22T14:47:28.494Z,101722
2017-12-22T14:48:34.012Z,101721
2017-12-22T14:49:39.192Z,101733
2017-12-22T14:50:44.369Z,101730
2017-12-22T14:51:49.926Z,101730
2017-12-22T14:52:55.409Z,101724
2017-12-22T14:54:00.879Z,101733
2017-12-22T14:55:06.437Z,101719
2017-12-22T14:56:11.883Z,101713
2017-12-22T14:57:17.149Z,101736
2017-12-22T14:58:22.231Z,101730
2017-12-22T14:59:27.737Z,101727
2017-12-22T15:00:33.273Z,101733
2017-12-22T15:01:38.746Z,101727
2017-12-22T15:02:44.245Z,101724
2017-12-22T15:03:49.987Z,101730
2017-12-22T15:04:55.452Z,101739
2017-12-22T15:06:00.930Z,101739
2017-12-22T15:07:06.699Z,101727
2017-12-22T15:08:11.878Z,101733
2017-12-22T15:09:17.498Z,101727
2017-12-22T15:10:23.184Z,101733
2017-12-22T15:11:28.678Z,101744
2017-12-22T15:12:34.882Z,101736
2017-12-22T15:13:40.098Z,101733
2017-12-22T15:14:45.599Z,101739
2017-12-22T15:15:51.053Z,101742
2017-12-22T15:16:56.545Z,101727
2017-12-22T15:18:02.030Z,101739
2017-12-22T15:19:07.656Z,101747
2017-12-22T15:20:12.874Z,101750
2017-12-22T15:21:18.056Z,101753
2017-12-22T15:22:23.792Z,101756
2017-12-22T15:23:29.294Z,101753
2017-12-22T15:24:35.009Z,101741
2017-12-22T15:25:40.492Z,101759
2017-12-22T15:26:45.952Z,101747
2017-12-22T15:27:51.688Z,101759
2017-12-22T15:28:56.588Z,101747
2017-12-22T15:30:01.830Z,101753
2017-12-22T15:31:07.263Z,101756
2017-12-22T15:32:12.816Z,101747
2017-12-22T15:33:18.272Z,101759
2017-12-22T15:34:23.998Z,101753
2017-12-22T15:35:29.460Z,101756
2017-12-22T15:36:34.888Z,101753
2017-12-22T15:37:40.780Z,101759
2017-12-22T15:38:46.590Z,101753
2017-12-22T15:39:52.415Z,101765
2017-12-22T15:40:57.889Z,101756
2017-12-22T15:42:03.391Z,101756
2017-12-22T15:43:09.132Z,101759
2017-12-22T15:44:14.629Z,101765
2017-12-22T15:45:20.099Z,101765
2017-12-22T15:46:40.509Z,101776
2017-12-22T15:47:46.001Z,101773
2017-12-22T15:48:51.739Z,101773
2017-12-22T15:49:57.251Z,101773
2017-12-22T15:51:02.448Z,101782
2017-12-22T15:52:08.269Z,101776
2017-12-22T15:53:13.874Z,101773
2017-12-22T15:54:19.339Z,101767
2017-12-22T15:55:25.193Z,101773
2017-12-22T15:56:30.655Z,101782
2017-12-22T15:57:36.705Z,101773
2017-12-22T15:58:41.586Z,101782
2017-12-22T15:59:47.066Z,101785
2017-12-22T16:00:52.915Z,101785
2017-12-22T16:01:58.107Z,101782
2017-12-22T16:03:03.600Z,101794
2017-12-22T16:04:09.496Z,101791
2017-12-22T16:05:14.803Z,101790
2017-12-22T16:06:20.286Z,101779
2017-12-22T16:07:26.602Z,101785
2017-12-22T16:08:31.775Z,101784
2017-12-22T16:09:37.306Z,101790
2017-12-22T16:10:42.776Z,101785
2017-12-22T16:11:48.397Z,101784
2017-12-22T16:12:54.142Z,101782
2017-12-22T16:13:59.606Z,101793
2017-12-22T16:15:05.100Z,101788
2017-12-22T16:16:10.842Z,101790
2017-12-22T16:17:16.047Z,101791
2017-12-22T16:18:21.532Z,101796
2017-12-22T16:19:27.309Z,101790
2017-12-22T16:20:32.493Z,101793
2017-12-22T16:21:38.376Z,101796
2017-12-22T16:22:43.859Z,101796
2017-12-22T16:23:49.037Z,101805
2017-12-22T16:24:54.010Z,101811
2017-12-22T16:25:59.483Z,101796
2017-12-22T16:27:04.951Z,101805
2017-12-22T16:28:10.841Z,101802
2017-12-22T16:29:16.345Z,101814
2017-12-22T16:30:21.877Z,101802
2017-12-22T16:31:27.573Z,101817
2017-12-22T16:32:33.041Z,101811
2017-12-22T16:33:38.591Z,101814
2017-12-22T16:34:44.097Z,101811
2017-12-22T16:35:49.034Z,101811
2017-12-22T16:36:54.585Z,101820
2017-12-22T16:38:00.041Z,101805
2017-12-22T16:39:05.515Z,101820
2017-12-22T16:40:11.005Z,101802
2017-12-22T16:41:16.696Z,101814
2017-12-22T16:42:22.160Z,101811
2017-12-22T16:43:27.646Z,101820
2017-12-22T16:44:33.112Z,101814
2017-12-22T16:45:38.872Z,101817
2017-12-22T16:46:44.062Z,101828
2017-12-22T16:47:48.977Z,101825
2017-12-22T16:48:54.719Z,101831
2017-12-22T16:49:59.922Z,101828
2017-12-22T16:51:04.838Z,101834
2017-12-22T16:52:10.290Z,101823
2017-12-22T16:53:15.514Z,101825
2017-12-22T16:54:21.046Z,101823
2017-12-22T16:55:26.860Z,101817
2017-12-22T16:56:32.342Z,101828
2017-12-22T16:57:38.509Z,101823
2017-12-22T16:58:43.978Z,101817
2017-12-22T16:59:49.458Z,101809
2017-12-22T17:00:55.199Z,101811
2017-12-22T17:02:00.664Z,101811
2017-12-22T17:03:06.117Z,101823
2017-12-22T17:04:11.955Z,101817
2017-12-22T17:05:16.892Z,101817
2017-12-22T17:06:21.854Z,101825
2017-12-22T17:07:27.719Z,101820
2017-12-22T17:08:32.945Z,101817
2017-12-22T17:09:38.600Z,101820
2017-12-22T17:10:44.089Z,101812
2017-12-22T17:11:49.579Z,101812
2017-12-22T17:12:54.915Z,101820
2017-12-22T17:14:00.099Z,101823
2017-12-22T17:15:05.587Z,101817
2017-12-22T17:16:11.171Z,101834
2017-12-22T17:17:16.354Z,101828
2017-12-22T17:18:21.538Z,101840
2017-12-22T17:19:27.312Z,101823
2017-12-22T17:20:32.773Z,101823
2017-12-22T17:21:38.508Z,101818
2017-12-22T17:22:44.010Z,101823
2017-12-22T17:23:49.477Z,101820
2017-12-22T17:24:54.954Z,101823
2017-12-22T17:26:00.419Z,101818
2017-12-22T17:27:05.642Z,101818
2017-12-22T17:28:11.641Z,101823
2017-12-22T17:29:17.100Z,101820
2017-12-22T17:30:22.295Z,101823
2017-12-22T17:31:28.533Z,101812
2017-12-22T17:32:33.744Z,101823
2017-12-22T17:33:39.180Z,101812
2017-12-22T17:34:44.593Z,101818
2017-12-22T17:35:50.051Z,101812
2017-12-22T17:36:56.013Z,101818
2017-12-22T17:38:01.201Z,101821
2017-12-22T17:39:06.674Z,101823
2017-12-22T17:40:12.495Z,101840
2017-12-22T17:41:17.975Z,101828
2017-12-22T17:43:43.677Z,101837
2017-12-22T17:44:49.182Z,101837
2017-12-22T17:45:55.203Z,101834
2017-12-22T17:47:00.417Z,101831
2017-12-22T17:48:05.873Z,101840
2017-12-22T17:49:11.676Z,101837
2017-12-22T17:50:16.884Z,101837
2017-12-22T17:51:22.356Z,101840
2017-12-22T17:52:28.634Z,101846
2017-12-22T17:53:34.124Z,101843
2017-12-22T17:54:39.838Z,101846
2017-12-22T17:55:45.338Z,101843
2017-12-22T17:56:50.819Z,101840
2017-12-22T17:57:56.697Z,101846
2017-12-22T17:59:01.917Z,101846
2017-12-22T18:00:06.808Z,101849
2017-12-22T18:01:12.523Z,101846
2017-12-22T18:02:17.985Z,101855
2017-12-22T18:03:23.477Z,101846
2017-12-22T18:04:30.058Z,101837
2017-12-22T18:05:35.544Z,101846
2017-12-22T18:06:40.582Z,101840
2017-12-22T18:07:46.064Z,101849
2017-12-22T18:08:51.698Z,101852
2017-12-22T18:09:57.445Z,101840
2017-12-22T18:11:02.661Z,101840
2017-12-22T18:12:07.903Z,101846
2017-12-22T18:13:13.641Z,101843
2017-12-22T18:14:19.141Z,101840
2017-12-22T18:15:25.508Z,101849
2017-12-22T18:16:30.974Z,101852
2017-12-22T18:17:36.158Z,101849
2017-12-22T18:18:42.114Z,101849
2017-12-22T18:19:47.592Z,101840
2017-12-22T18:20:53.066Z,101837
2017-12-22T18:21:58.947Z,101834
2017-12-22T18:23:03.886Z,101834
2017-12-22T18:24:09.362Z,101834
2017-12-22T18:25:15.000Z,101837
2017-12-22T18:26:20.486Z,101834
2017-12-22T18:27:40.946Z,101823
2017-12-22T18:28:46.425Z,101837
2017-12-22T18:29:51.896Z,101837
2017-12-22T18:30:57.729Z,101826
2017-12-22T18:32:03.215Z,101831
2017-12-22T18:33:08.727Z,101831
2017-12-22T18:34:14.359Z,101828
2017-12-22T18:35:19.550Z,101828
2017-12-22T18:36:25.469Z,101828
2017-12-22T18:37:30.931Z,101828
2017-12-22T18:38:35.812Z,101832
2017-12-22T18:39:41.586Z,101823
2017-12-22T18:40:47.061Z,101834
2017-12-22T18:41:52.523Z,101829
2017-12-22T18:42:58.352Z,101840
2017-12-22T18:44:03.571Z,101837
2017-12-22T18:45:08.487Z,101834
2017-12-22T18:46:14.035Z,101843
2017-12-22T18:47:19.532Z,101849
2017-12-22T18:48:26.215Z,101846
2017-12-22T18:49:31.693Z,101846
2017-12-22T18:50:36.878Z,101837
2017-12-22T18:51:42.340Z,101849
2017-12-22T18:52:47.566Z,101855
2017-12-22T18:53:52.794Z,101855
2017-12-22T18:54:58.549Z,101858
2017-12-22T18:56:04.058Z,101861
2017-12-22T18:57:09.246Z,101858
2017-12-22T18:58:15.347Z,101861
2017-12-22T18:59:21.037Z,101852
2017-12-22T19:00:27.023Z,101861
2017-12-22T19:01:32.523Z,101861
2017-12-22T19:02:37.996Z,101858
2017-12-22T19:03:43.639Z,101861
2017-12-22T19:04:49.124Z,101869
2017-12-22T19:05:54.619Z,101858
2017-12-22T19:07:00.398Z,101861
2017-12-22T19:08:05.585Z,101855
2017-12-22T19:09:11.099Z,101861
2017-12-22T19:10:16.653Z,101843
2017-12-22T19:11:22.129Z,101852
2017-12-22T19:12:28.134Z,101849
2017-12-22T19:13:33.622Z,101849
2017-12-22T19:14:38.524Z,101846
2017-12-22T19:15:44.294Z,101864
2017-12-22T19:16:49.793Z,101869
2017-12-22T19:17:55.255Z,101861
2017-12-22T19:19:01.002Z,101846
2017-12-22T19:20:05.956Z,101849
2017-12-22T19:21:11.197Z,101852
2017-12-22T19:22:16.672Z,101864
2017-12-22T19:23:21.887Z,101855
2017-12-22T19:24:27.618Z,101858
2017-12-22T19:25:32.803Z,101849
2017-12-22T19:26:38.280Z,101864
2017-12-22T19:27:44.374Z,101861
2017-12-22T19:28:49.871Z,101855
2017-12-22T19:29:54.815Z,101858
2017-12-22T19:31:00.259Z,101861
2017-12-22T19:32:05.735Z,101861
2017-12-22T19:33:11.219Z,101855
2017-12-22T19:34:16.668Z,101861
2017-12-22T19:35:22.180Z,101861
2017-12-22T19:36:28.061Z,101861
2017-12-22T19:37:33.548Z,101861
2017-12-22T19:38:39.044Z,101861
2017-12-22T19:39:44.581Z,101861
2017-12-22T19:40:50.058Z,101855
2017-12-22T19:41:55.520Z,101852
2017-12-22T19:43:01.405Z,101869
2017-12-22T19:44:06.589Z,101877
2017-12-22T19:45:10.926Z,101880
2017-12-22T19:46:16.704Z,101880
2017-12-22T19:47:22.161Z,101886
2017-12-22T19:48:27.993Z,101883
2017-12-22T19:49:33.204Z,101892
2017-12-22T19:50:38.703Z,101886
2017-12-22T19:51:44.645Z,101880
2017-12-22T19:52:50.110Z,101883
2017-12-22T19:53:55.289Z,101874
2017-12-22T19:55:01.003Z,101874
2017-12-22T19:56:06.514Z,101869
2017-12-22T19:57:11.712Z,101861
2017-12-22T19:58:17.479Z,101874
2017-12-22T19:59:22.980Z,101871
2017-12-22T20:00:28.197Z,101871
2017-12-22T20:01:33.407Z,101871
2017-12-22T20:02:38.930Z,101861
2017-12-22T20:03:44.573Z,101858
2017-12-22T20:04:50.098Z,101864
2017-12-22T20:05:55.348Z,101855
2017-12-22T20:07:01.084Z,101864
2017-12-22T20:08:05.978Z,101861
2017-12-22T20:09:11.190Z,101864
2017-12-22T20:10:16.986Z,101871
2017-12-22T20:11:21.899Z,101883
2017-12-22T20:12:27.733Z,101886
2017-12-22T20:13:32.968Z,101886
2017-12-22T20:14:38.212Z,101889
2017-12-22T20:15:43.751Z,101895
2017-12-22T20:16:48.945Z,101883
2017-12-22T20:17:54.431Z,101892
2017-12-22T20:19:00.375Z,101889
2017-12-22T20:20:05.868Z,101880
2017-12-22T20:21:11.062Z,101880
2017-12-22T20:22:16.892Z,101880
2017-12-22T20:23:22.878Z,101883
2017-12-22T20:24:28.602Z,101883
2017-12-22T20:25:34.081Z,101889
2017-12-22T20:26:39.572Z,101892
2017-12-22T20:27:45.288Z,101889
2017-12-22T20:28:50.783Z,101883
2017-12-22T20:29:56.257Z,101877
2017-12-22T20:31:01.732Z,101877
2017-12-22T20:32:07.222Z,101877
2017-12-22T20:33:12.649Z,101874
2017-12-22T20:34:18.494Z,101883
2017-12-22T20:35:23.693Z,101883
2017-12-22T20:36:29.593Z,101877
2017-12-22T20:37:35.268Z,101889
2017-12-22T20:38:40.759Z,101877
2017-12-22T20:39:46.399Z,101889
2017-12-22T20:40:51.881Z,101895
2017-12-22T20:41:57.373Z,101883
2017-12-22T20:43:03.072Z,101900
2017-12-22T20:44:08.277Z,101892
2017-12-22T20:45:13.475Z,101892
2017-12-22T20:46:18.958Z,101895
2017-12-22T20:47:24.427Z,101877
2017-12-22T20:48:30.253Z,101883
2017-12-22T20:49:35.733Z,101883
2017-12-22T20:50:41.199Z,101892
2017-12-22T20:51:46.966Z,101898
2017-12-22T20:52:52.458Z,101903
2017-12-22T20:53:57.945Z,101892
2017-12-22T20:55:03.579Z,101901
2017-12-22T20:56:08.492Z,101897
2017-12-22T20:57:13.672Z,101909
2017-12-22T20:58:19.166Z,101906
2017-12-22T20:59:24.392Z,101906